sensor_id;sensor_type;location;lat;lon;timestamp;P1;durP1;ratioP1;P2;durP2;ratioP2
53479;SDS011;56133;51.012;-1.648;2022-08-01T00:02:02;7.28;;;2.30;;
53479;SDS011;56133;51.012;-1.648;2022-08-01T00:04:28;7.05;;;2.15;;
53479;SDS011;56133;51.012;-1.648;2022-08-01T00:06:53;4.00;;;2.03;;
53479;SDS011;56133;51.012;-1.648;2022-08-01T00:09:19;8.13;;;2.45;;
53479;SDS011;56133;51.012;-1.648;2022-08-01T00:11:44;7.85;;;2.53;;
53479;SDS011;56133;51.012;-1.648;2022-08-01T00:14:10;5.25;;;2.15;;
53479;SDS011;56133;51.012;-1.648;2022-08-01T00:16:36;6.30;;;2.25;;
53479;SDS011;56133;51.012;-1.648;2022-08-01T00:19:02;3.88;;;2.05;;
53479;SDS011;56133;51.012;-1.648;2022-08-01T00:21:28;5.57;;;2.08;;
53479;SDS011;56133;51.012;-1.648;2022-08-01T00:23:53;8.50;;;3.28;;
53479;SDS011;56133;51.012;-1.648;2022-08-01T00:26:19;6.10;;;2.30;;
53479;SDS011;56133;51.012;-1.648;2022-08-01T00:28:45;9.30;;;2.75;;
53479;SDS011;56133;51.012;-1.648;2022-08-01T00:31:10;6.22;;;2.25;;
53479;SDS011;56133;51.012;-1.648;2022-08-01T00:33:36;4.53;;;2.15;;
53479;SDS011;56133;51.012;-1.648;2022-08-01T00:36:01;4.75;;;2.47;;
53479;SDS011;56133;51.012;-1.648;2022-08-01T00:38:27;6.60;;;2.97;;
53479;SDS011;56133;51.012;-1.648;2022-08-01T00:40:52;5.55;;;2.50;;
53479;SDS011;56133;51.012;-1.648;2022-08-01T00:43:18;4.38;;;2.65;;
53479;SDS011;56133;51.012;-1.648;2022-08-01T00:45:43;7.20;;;2.90;;
53479;SDS011;56133;51.012;-1.648;2022-08-01T00:48:08;8.05;;;2.53;;
53479;SDS011;56133;51.012;-1.648;2022-08-01T00:50:34;5.43;;;2.65;;
53479;SDS011;56133;51.012;-1.648;2022-08-01T00:53:00;7.78;;;3.10;;
53479;SDS011;56133;51.012;-1.648;2022-08-01T00:55:26;5.20;;;2.47;;
53479;SDS011;56133;51.012;-1.648;2022-08-01T00:57:53;4.65;;;2.50;;
53479;SDS011;56133;51.012;-1.648;2022-08-01T01:00:19;7.68;;;2.60;;
53479;SDS011;56133;51.012;-1.648;2022-08-01T01:02:45;5.63;;;2.20;;
53479;SDS011;56133;51.012;-1.648;2022-08-01T01:05:10;7.00;;;2.33;;
53479;SDS011;56133;51.012;-1.648;2022-08-01T01:07:42;7.70;;;2.97;;
53479;SDS011;56133;51.012;-1.648;2022-08-01T01:10:25;5.78;;;2.42;;
53479;SDS011;56133;51.012;-1.648;2022-08-01T01:13:57;5.03;;;2.90;;
53479;SDS011;56133;51.012;-1.648;2022-08-01T01:16:02;4.97;;;2.55;;
53479;SDS011;56133;51.012;-1.648;2022-08-01T01:18:54;4.70;;;2.60;;
53479;SDS011;56133;51.012;-1.648;2022-08-01T01:22:08;3.85;;;2.25;;
53479;SDS011;56133;51.012;-1.648;2022-08-01T01:27:22;7.85;;;3.00;;
53479;SDS011;56133;51.012;-1.648;2022-08-01T01:29:56;4.80;;;2.20;;
53479;SDS011;56133;51.012;-1.648;2022-08-01T01:32:28;5.80;;;2.38;;
53479;SDS011;56133;51.012;-1.648;2022-08-01T01:34:59;4.68;;;2.30;;
53479;SDS011;56133;51.012;-1.648;2022-08-01T01:37:31;5.07;;;2.33;;
53479;SDS011;56133;51.012;-1.648;2022-08-01T01:39:59;4.80;;;2.13;;
53479;SDS011;56133;51.012;-1.648;2022-08-01T01:42:27;4.50;;;2.47;;
53479;SDS011;56133;51.012;-1.648;2022-08-01T01:44:55;4.85;;;2.28;;
53479;SDS011;56133;51.012;-1.648;2022-08-01T01:47:22;5.85;;;2.10;;
53479;SDS011;56133;51.012;-1.648;2022-08-01T01:49:49;4.70;;;1.90;;
53479;SDS011;56133;51.012;-1.648;2022-08-01T01:52:17;4.90;;;2.08;;
53479;SDS011;56133;51.012;-1.648;2022-08-01T01:54:45;2.65;;;1.90;;
53479;SDS011;56133;51.012;-1.648;2022-08-01T01:57:13;3.03;;;1.63;;
53479;SDS011;56133;51.012;-1.648;2022-08-01T01:59:40;4.50;;;1.92;;
53479;SDS011;56133;51.012;-1.648;2022-08-01T02:02:07;3.97;;;1.50;;
53479;SDS011;56133;51.012;-1.648;2022-08-01T02:04:38;3.40;;;1.52;;
53479;SDS011;56133;51.012;-1.648;2022-08-01T02:07:07;5.60;;;2.28;;
53479;SDS011;56133;51.012;-1.648;2022-08-01T02:09:34;4.88;;;1.63;;
53479;SDS011;56133;51.012;-1.648;2022-08-01T02:12:02;3.83;;;1.50;;
53479;SDS011;56133;51.012;-1.648;2022-08-01T02:14:30;4.35;;;1.63;;
53479;SDS011;56133;51.012;-1.648;2022-08-01T02:17:00;4.47;;;1.70;;
53479;SDS011;56133;51.012;-1.648;2022-08-01T02:19:28;2.45;;;1.58;;
53479;SDS011;56133;51.012;-1.648;2022-08-01T02:22:00;3.97;;;1.90;;
53479;SDS011;56133;51.012;-1.648;2022-08-01T02:27:11;2.47;;;1.60;;
53479;SDS011;56133;51.012;-1.648;2022-08-01T02:29:57;3.00;;;1.65;;
53479;SDS011;56133;51.012;-1.648;2022-08-01T02:32:26;3.10;;;1.67;;
53479;SDS011;56133;51.012;-1.648;2022-08-01T02:34:56;4.15;;;1.77;;
53479;SDS011;56133;51.012;-1.648;2022-08-01T02:37:22;3.45;;;1.88;;
53479;SDS011;56133;51.012;-1.648;2022-08-01T02:39:52;3.53;;;1.73;;
53479;SDS011;56133;51.012;-1.648;2022-08-01T02:42:19;5.30;;;2.05;;
53479;SDS011;56133;51.012;-1.648;2022-08-01T02:44:47;4.97;;;2.00;;
53479;SDS011;56133;51.012;-1.648;2022-08-01T02:47:14;6.13;;;1.80;;
53479;SDS011;56133;51.012;-1.648;2022-08-01T02:49:43;5.80;;;1.83;;
53479;SDS011;56133;51.012;-1.648;2022-08-01T02:52:12;3.90;;;1.48;;
53479;SDS011;56133;51.012;-1.648;2022-08-01T02:54:40;3.80;;;1.60;;
53479;SDS011;56133;51.012;-1.648;2022-08-01T02:57:09;4.03;;;1.50;;
53479;SDS011;56133;51.012;-1.648;2022-08-01T02:59:38;4.32;;;1.85;;
53479;SDS011;56133;51.012;-1.648;2022-08-01T03:02:05;3.05;;;1.30;;
53479;SDS011;56133;51.012;-1.648;2022-08-01T03:04:34;4.63;;;1.58;;
53479;SDS011;56133;51.012;-1.648;2022-08-01T03:07:02;3.65;;;1.40;;
53479;SDS011;56133;51.012;-1.648;2022-08-01T03:09:30;3.28;;;1.25;;
53479;SDS011;56133;51.012;-1.648;2022-08-01T03:11:59;3.03;;;1.30;;
53479;SDS011;56133;51.012;-1.648;2022-08-01T03:14:27;4.10;;;1.50;;
53479;SDS011;56133;51.012;-1.648;2022-08-01T03:16:55;2.28;;;1.00;;
53479;SDS011;56133;51.012;-1.648;2022-08-01T03:19:23;2.97;;;1.65;;
53479;SDS011;56133;51.012;-1.648;2022-08-01T03:21:51;4.63;;;1.40;;
53479;SDS011;56133;51.012;-1.648;2022-08-01T03:24:18;3.75;;;1.50;;
53479;SDS011;56133;51.012;-1.648;2022-08-01T03:26:46;3.03;;;1.23;;
53479;SDS011;56133;51.012;-1.648;2022-08-01T03:29:17;1.95;;;1.10;;
53479;SDS011;56133;51.012;-1.648;2022-08-01T03:31:46;2.78;;;1.10;;
53479;SDS011;56133;51.012;-1.648;2022-08-01T03:34:13;2.28;;;1.05;;
53479;SDS011;56133;51.012;-1.648;2022-08-01T03:36:49;3.50;;;1.08;;
53479;SDS011;56133;51.012;-1.648;2022-08-01T03:39:21;3.83;;;1.10;;
53479;SDS011;56133;51.012;-1.648;2022-08-01T03:41:51;3.72;;;1.20;;
53479;SDS011;56133;51.012;-1.648;2022-08-01T03:44:22;2.30;;;1.20;;
53479;SDS011;56133;51.012;-1.648;2022-08-01T03:46:56;3.03;;;1.00;;
53479;SDS011;56133;51.012;-1.648;2022-08-01T03:49:29;1.45;;;1.00;;
53479;SDS011;56133;51.012;-1.648;2022-08-01T03:51:56;1.85;;;1.20;;
53479;SDS011;56133;51.012;-1.648;2022-08-01T03:54:27;1.73;;;1.00;;
53479;SDS011;56133;51.012;-1.648;2022-08-01T03:56:56;3.63;;;0.90;;
53479;SDS011;56133;51.012;-1.648;2022-08-01T03:59:22;3.58;;;1.00;;
53479;SDS011;56133;51.012;-1.648;2022-08-01T04:01:49;2.90;;;1.10;;
53479;SDS011;56133;51.012;-1.648;2022-08-01T04:04:15;1.95;;;0.90;;
53479;SDS011;56133;51.012;-1.648;2022-08-01T04:06:41;3.15;;;1.02;;
53479;SDS011;56133;51.012;-1.648;2022-08-01T04:09:09;2.22;;;0.90;;
53479;SDS011;56133;51.012;-1.648;2022-08-01T04:11:35;1.55;;;0.90;;
53479;SDS011;56133;51.012;-1.648;2022-08-01T04:14:01;2.42;;;1.02;;
53479;SDS011;56133;51.012;-1.648;2022-08-01T04:16:26;0.98;;;0.80;;
53479;SDS011;56133;51.012;-1.648;2022-08-01T04:18:52;3.28;;;0.90;;
53479;SDS011;56133;51.012;-1.648;2022-08-01T04:21:18;3.80;;;1.02;;
53479;SDS011;56133;51.012;-1.648;2022-08-01T04:23:47;2.40;;;0.95;;
53479;SDS011;56133;51.012;-1.648;2022-08-01T04:26:16;2.08;;;0.90;;
53479;SDS011;56133;51.012;-1.648;2022-08-01T04:28:43;2.65;;;0.80;;
53479;SDS011;56133;51.012;-1.648;2022-08-01T04:31:11;2.05;;;0.90;;
53479;SDS011;56133;51.012;-1.648;2022-08-01T04:33:41;2.05;;;0.90;;
53479;SDS011;56133;51.012;-1.648;2022-08-01T04:36:10;1.27;;;0.80;;
53479;SDS011;56133;51.012;-1.648;2022-08-01T04:38:38;2.20;;;0.93;;
53479;SDS011;56133;51.012;-1.648;2022-08-01T04:41:06;2.22;;;0.90;;
53479;SDS011;56133;51.012;-1.648;2022-08-01T04:43:35;2.58;;;0.95;;
53479;SDS011;56133;51.012;-1.648;2022-08-01T04:46:01;1.52;;;0.85;;
53479;SDS011;56133;51.012;-1.648;2022-08-01T04:48:28;2.38;;;1.10;;
53479;SDS011;56133;51.012;-1.648;2022-08-01T04:50:55;2.38;;;0.80;;
53479;SDS011;56133;51.012;-1.648;2022-08-01T04:53:21;3.72;;;1.00;;
53479;SDS011;56133;51.012;-1.648;2022-08-01T04:55:47;4.18;;;1.00;;
53479;SDS011;56133;51.012;-1.648;2022-08-01T04:58:13;1.65;;;1.05;;
53479;SDS011;56133;51.012;-1.648;2022-08-01T05:00:40;2.35;;;0.80;;
53479;SDS011;56133;51.012;-1.648;2022-08-01T05:03:06;2.30;;;0.93;;
53479;SDS011;56133;51.012;-1.648;2022-08-01T05:05:32;2.08;;;0.90;;
53479;SDS011;56133;51.012;-1.648;2022-08-01T05:07:57;2.10;;;1.10;;
53479;SDS011;56133;51.012;-1.648;2022-08-01T05:10:23;3.05;;;1.00;;
53479;SDS011;56133;51.012;-1.648;2022-08-01T05:12:48;1.67;;;1.10;;
53479;SDS011;56133;51.012;-1.648;2022-08-01T05:15:14;2.40;;;0.90;;
53479;SDS011;56133;51.012;-1.648;2022-08-01T05:17:39;2.10;;;0.88;;
53479;SDS011;56133;51.012;-1.648;2022-08-01T05:20:07;1.90;;;0.90;;
53479;SDS011;56133;51.012;-1.648;2022-08-01T05:22:32;2.60;;;1.10;;
53479;SDS011;56133;51.012;-1.648;2022-08-01T05:24:58;4.20;;;1.33;;
53479;SDS011;56133;51.012;-1.648;2022-08-01T05:27:24;4.03;;;1.27;;
53479;SDS011;56133;51.012;-1.648;2022-08-01T05:29:50;2.40;;;0.98;;
53479;SDS011;56133;51.012;-1.648;2022-08-01T05:32:15;1.90;;;1.00;;
53479;SDS011;56133;51.012;-1.648;2022-08-01T05:34:41;2.65;;;0.90;;
53479;SDS011;56133;51.012;-1.648;2022-08-01T05:37:06;1.90;;;0.90;;
53479;SDS011;56133;51.012;-1.648;2022-08-01T05:39:32;3.10;;;0.75;;
53479;SDS011;56133;51.012;-1.648;2022-08-01T05:41:58;2.22;;;0.93;;
53479;SDS011;56133;51.012;-1.648;2022-08-01T05:44:23;1.25;;;0.75;;
53479;SDS011;56133;51.012;-1.648;2022-08-01T05:46:49;1.92;;;0.80;;
53479;SDS011;56133;51.012;-1.648;2022-08-01T05:49:14;1.88;;;0.68;;
53479;SDS011;56133;51.012;-1.648;2022-08-01T05:51:40;2.00;;;0.80;;
53479;SDS011;56133;51.012;-1.648;2022-08-01T05:54:05;1.23;;;0.63;;
53479;SDS011;56133;51.012;-1.648;2022-08-01T05:56:30;1.05;;;0.82;;
53479;SDS011;56133;51.012;-1.648;2022-08-01T05:58:56;4.07;;;1.05;;
53479;SDS011;56133;51.012;-1.648;2022-08-01T06:01:21;1.15;;;0.82;;
53479;SDS011;56133;51.012;-1.648;2022-08-01T06:03:47;2.08;;;0.90;;
53479;SDS011;56133;51.012;-1.648;2022-08-01T06:06:12;1.00;;;0.80;;
53479;SDS011;56133;51.012;-1.648;2022-08-01T06:08:39;2.35;;;1.02;;
53479;SDS011;56133;51.012;-1.648;2022-08-01T06:11:04;2.45;;;0.90;;
53479;SDS011;56133;51.012;-1.648;2022-08-01T06:13:30;1.92;;;0.90;;
53479;SDS011;56133;51.012;-1.648;2022-08-01T06:15:56;2.17;;;0.88;;
53479;SDS011;56133;51.012;-1.648;2022-08-01T06:18:22;3.25;;;0.90;;
53479;SDS011;56133;51.012;-1.648;2022-08-01T06:20:47;5.55;;;0.90;;
53479;SDS011;56133;51.012;-1.648;2022-08-01T06:23:13;1.92;;;0.70;;
53479;SDS011;56133;51.012;-1.648;2022-08-01T06:25:41;1.60;;;0.80;;
53479;SDS011;56133;51.012;-1.648;2022-08-01T06:28:10;2.35;;;0.90;;
53479;SDS011;56133;51.012;-1.648;2022-08-01T06:30:35;1.30;;;0.70;;
53479;SDS011;56133;51.012;-1.648;2022-08-01T06:33:01;1.52;;;0.93;;
53479;SDS011;56133;51.012;-1.648;2022-08-01T06:35:28;2.53;;;0.90;;
53479;SDS011;56133;51.012;-1.648;2022-08-01T06:37:54;1.25;;;0.75;;
53479;SDS011;56133;51.012;-1.648;2022-08-01T06:40:21;2.83;;;0.80;;
53479;SDS011;56133;51.012;-1.648;2022-08-01T06:42:46;3.25;;;1.00;;
53479;SDS011;56133;51.012;-1.648;2022-08-01T06:45:12;2.05;;;0.82;;
53479;SDS011;56133;51.012;-1.648;2022-08-01T06:47:39;2.85;;;1.00;;
53479;SDS011;56133;51.012;-1.648;2022-08-01T06:50:05;1.48;;;0.88;;
53479;SDS011;56133;51.012;-1.648;2022-08-01T06:52:32;1.88;;;0.80;;
53479;SDS011;56133;51.012;-1.648;2022-08-01T06:54:58;2.45;;;1.17;;
53479;SDS011;56133;51.012;-1.648;2022-08-01T06:57:25;2.83;;;0.90;;
53479;SDS011;56133;51.012;-1.648;2022-08-01T06:59:51;2.20;;;0.80;;
53479;SDS011;56133;51.012;-1.648;2022-08-01T07:02:16;1.95;;;0.80;;
53479;SDS011;56133;51.012;-1.648;2022-08-01T07:04:42;2.03;;;0.80;;
53479;SDS011;56133;51.012;-1.648;2022-08-01T07:07:07;4.22;;;1.00;;
53479;SDS011;56133;51.012;-1.648;2022-08-01T07:09:33;2.25;;;0.80;;
53479;SDS011;56133;51.012;-1.648;2022-08-01T07:11:58;2.55;;;0.93;;
53479;SDS011;56133;51.012;-1.648;2022-08-01T07:14:24;3.13;;;0.95;;
53479;SDS011;56133;51.012;-1.648;2022-08-01T07:16:50;2.88;;;0.80;;
53479;SDS011;56133;51.012;-1.648;2022-08-01T07:19:16;2.47;;;0.80;;
53479;SDS011;56133;51.012;-1.648;2022-08-01T07:21:42;4.60;;;0.93;;
53479;SDS011;56133;51.012;-1.648;2022-08-01T07:24:09;2.60;;;0.80;;
53479;SDS011;56133;51.012;-1.648;2022-08-01T07:26:39;2.50;;;0.80;;
53479;SDS011;56133;51.012;-1.648;2022-08-01T07:29:08;2.80;;;1.15;;
53479;SDS011;56133;51.012;-1.648;2022-08-01T07:31:34;3.85;;;1.10;;
53479;SDS011;56133;51.012;-1.648;2022-08-01T07:34:00;3.03;;;0.88;;
53479;SDS011;56133;51.012;-1.648;2022-08-01T07:36:25;3.33;;;1.00;;
53479;SDS011;56133;51.012;-1.648;2022-08-01T07:38:52;2.95;;;0.90;;
53479;SDS011;56133;51.012;-1.648;2022-08-01T07:41:18;2.10;;;0.95;;
53479;SDS011;56133;51.012;-1.648;2022-08-01T07:43:43;3.33;;;0.93;;
53479;SDS011;56133;51.012;-1.648;2022-08-01T07:46:09;2.65;;;1.10;;
53479;SDS011;56133;51.012;-1.648;2022-08-01T07:48:34;2.80;;;1.00;;
53479;SDS011;56133;51.012;-1.648;2022-08-01T07:51:00;1.83;;;0.90;;
53479;SDS011;56133;51.012;-1.648;2022-08-01T07:53:25;3.55;;;1.00;;
53479;SDS011;56133;51.012;-1.648;2022-08-01T07:55:51;2.25;;;0.82;;
53479;SDS011;56133;51.012;-1.648;2022-08-01T07:58:16;2.88;;;1.00;;
53479;SDS011;56133;51.012;-1.648;2022-08-01T08:00:42;3.25;;;1.13;;
53479;SDS011;56133;51.012;-1.648;2022-08-01T08:03:08;3.75;;;1.10;;
53479;SDS011;56133;51.012;-1.648;2022-08-01T08:05:34;3.53;;;1.45;;
53479;SDS011;56133;51.012;-1.648;2022-08-01T08:08:06;3.10;;;1.20;;
53479;SDS011;56133;51.012;-1.648;2022-08-01T08:10:33;3.47;;;1.25;;
53479;SDS011;56133;51.012;-1.648;2022-08-01T08:12:59;3.75;;;1.10;;
53479;SDS011;56133;51.012;-1.648;2022-08-01T08:15:28;1.85;;;1.00;;
53479;SDS011;56133;51.012;-1.648;2022-08-01T08:17:54;1.83;;;1.00;;
53479;SDS011;56133;51.012;-1.648;2022-08-01T08:20:20;2.45;;;0.90;;
53479;SDS011;56133;51.012;-1.648;2022-08-01T08:22:52;3.17;;;1.10;;
53479;SDS011;56133;51.012;-1.648;2022-08-01T08:25:18;3.83;;;1.25;;
53479;SDS011;56133;51.012;-1.648;2022-08-01T08:27:47;3.90;;;1.35;;
53479;SDS011;56133;51.012;-1.648;2022-08-01T08:30:13;3.53;;;1.05;;
53479;SDS011;56133;51.012;-1.648;2022-08-01T08:32:39;2.33;;;1.05;;
53479;SDS011;56133;51.012;-1.648;2022-08-01T08:35:06;1.73;;;1.00;;
53479;SDS011;56133;51.012;-1.648;2022-08-01T08:37:32;2.83;;;0.88;;
53479;SDS011;56133;51.012;-1.648;2022-08-01T08:40:02;3.60;;;1.20;;
53479;SDS011;56133;51.012;-1.648;2022-08-01T08:42:29;3.63;;;1.30;;
53479;SDS011;56133;51.012;-1.648;2022-08-01T08:44:54;3.22;;;1.10;;
53479;SDS011;56133;51.012;-1.648;2022-08-01T08:47:22;4.63;;;0.95;;
53479;SDS011;56133;51.012;-1.648;2022-08-01T08:49:50;1.48;;;1.00;;
53479;SDS011;56133;51.012;-1.648;2022-08-01T08:52:18;3.67;;;1.30;;
53479;SDS011;56133;51.012;-1.648;2022-08-01T08:54:46;2.97;;;1.35;;
53479;SDS011;56133;51.012;-1.648;2022-08-01T08:57:13;4.15;;;1.20;;
53479;SDS011;56133;51.012;-1.648;2022-08-01T08:59:42;3.05;;;1.48;;
53479;SDS011;56133;51.012;-1.648;2022-08-01T09:02:08;2.25;;;1.15;;
53479;SDS011;56133;51.012;-1.648;2022-08-01T09:04:35;5.57;;;1.20;;
53479;SDS011;56133;51.012;-1.648;2022-08-01T09:07:01;3.22;;;1.25;;
53479;SDS011;56133;51.012;-1.648;2022-08-01T09:09:30;6.60;;;1.30;;
53479;SDS011;56133;51.012;-1.648;2022-08-01T09:11:55;2.85;;;1.08;;
53479;SDS011;56133;51.012;-1.648;2022-08-01T09:14:21;3.85;;;1.35;;
53479;SDS011;56133;51.012;-1.648;2022-08-01T09:19:46;2.67;;;1.13;;
53479;SDS011;56133;51.012;-1.648;2022-08-01T09:22:15;4.97;;;1.30;;
53479;SDS011;56133;51.012;-1.648;2022-08-01T09:25:03;2.97;;;1.10;;
53479;SDS011;56133;51.012;-1.648;2022-08-01T09:27:29;2.30;;;1.00;;
53479;SDS011;56133;51.012;-1.648;2022-08-01T09:29:55;3.50;;;1.40;;
53479;SDS011;56133;51.012;-1.648;2022-08-01T09:32:33;4.78;;;1.10;;
53479;SDS011;56133;51.012;-1.648;2022-08-01T09:35:03;2.55;;;1.30;;
53479;SDS011;56133;51.012;-1.648;2022-08-01T09:37:52;3.20;;;1.35;;
53479;SDS011;56133;51.012;-1.648;2022-08-01T09:40:54;3.03;;;1.60;;
53479;SDS011;56133;51.012;-1.648;2022-08-01T09:43:22;5.50;;;1.95;;
53479;SDS011;56133;51.012;-1.648;2022-08-01T09:45:50;6.65;;;2.08;;
53479;SDS011;56133;51.012;-1.648;2022-08-01T09:48:18;4.82;;;2.05;;
53479;SDS011;56133;51.012;-1.648;2022-08-01T09:50:45;6.07;;;2.53;;
53479;SDS011;56133;51.012;-1.648;2022-08-01T09:53:12;9.73;;;3.38;;
53479;SDS011;56133;51.012;-1.648;2022-08-01T09:55:39;7.00;;;2.92;;
53479;SDS011;56133;51.012;-1.648;2022-08-01T09:58:06;4.88;;;2.30;;
53479;SDS011;56133;51.012;-1.648;2022-08-01T10:00:33;3.88;;;1.98;;
53479;SDS011;56133;51.012;-1.648;2022-08-01T10:02:59;7.18;;;2.88;;
53479;SDS011;56133;51.012;-1.648;2022-08-01T10:05:43;9.85;;;4.63;;
53479;SDS011;56133;51.012;-1.648;2022-08-01T10:08:09;6.75;;;3.80;;
53479;SDS011;56133;51.012;-1.648;2022-08-01T10:10:35;7.28;;;3.55;;
53479;SDS011;56133;51.012;-1.648;2022-08-01T10:13:01;4.15;;;3.33;;
53479;SDS011;56133;51.012;-1.648;2022-08-01T10:15:27;4.63;;;3.22;;
53479;SDS011;56133;51.012;-1.648;2022-08-01T10:17:56;4.18;;;2.05;;
53479;SDS011;56133;51.012;-1.648;2022-08-01T10:20:24;4.07;;;2.85;;
53479;SDS011;56133;51.012;-1.648;2022-08-01T10:22:52;5.60;;;3.10;;
53479;SDS011;56133;51.012;-1.648;2022-08-01T10:25:19;5.45;;;3.42;;
53479;SDS011;56133;51.012;-1.648;2022-08-01T10:27:46;5.38;;;3.72;;
53479;SDS011;56133;51.012;-1.648;2022-08-01T10:30:14;4.57;;;3.08;;
53479;SDS011;56133;51.012;-1.648;2022-08-01T10:32:41;3.78;;;2.53;;
53479;SDS011;56133;51.012;-1.648;2022-08-01T10:35:08;7.20;;;3.03;;
53479;SDS011;56133;51.012;-1.648;2022-08-01T10:37:34;5.97;;;3.15;;
53479;SDS011;56133;51.012;-1.648;2022-08-01T10:40:00;3.65;;;2.70;;
53479;SDS011;56133;51.012;-1.648;2022-08-01T10:42:27;3.53;;;2.60;;
53479;SDS011;56133;51.012;-1.648;2022-08-01T10:44:53;5.07;;;3.17;;
53479;SDS011;56133;51.012;-1.648;2022-08-01T10:47:25;4.65;;;2.85;;
53479;SDS011;56133;51.012;-1.648;2022-08-01T10:50:01;6.75;;;2.92;;
53479;SDS011;56133;51.012;-1.648;2022-08-01T10:52:32;4.25;;;2.88;;
53479;SDS011;56133;51.012;-1.648;2022-08-01T10:55:01;4.00;;;2.55;;
53479;SDS011;56133;51.012;-1.648;2022-08-01T10:57:45;5.63;;;2.60;;
53479;SDS011;56133;51.012;-1.648;2022-08-01T11:00:19;4.75;;;3.47;;
53479;SDS011;56133;51.012;-1.648;2022-08-01T11:02:58;3.58;;;2.92;;
53479;SDS011;56133;51.012;-1.648;2022-08-01T11:05:26;3.25;;;2.67;;
53479;SDS011;56133;51.012;-1.648;2022-08-01T11:07:55;5.63;;;2.60;;
53479;SDS011;56133;51.012;-1.648;2022-08-01T11:13:08;4.18;;;2.38;;
53479;SDS011;56133;51.012;-1.648;2022-08-01T11:15:36;5.10;;;2.40;;
53479;SDS011;56133;51.012;-1.648;2022-08-01T11:18:47;4.68;;;2.78;;
53479;SDS011;56133;51.012;-1.648;2022-08-01T11:20:57;3.47;;;2.42;;
53479;SDS011;56133;51.012;-1.648;2022-08-01T11:23:26;3.92;;;2.88;;
53479;SDS011;56133;51.012;-1.648;2022-08-01T11:28:25;3.53;;;2.30;;
53479;SDS011;56133;51.012;-1.648;2022-08-01T11:31:38;3.97;;;2.63;;
53479;SDS011;56133;51.012;-1.648;2022-08-01T11:38:35;5.18;;;2.92;;
53479;SDS011;56133;51.012;-1.648;2022-08-01T11:41:24;3.25;;;2.65;;
53479;SDS011;56133;51.012;-1.648;2022-08-01T11:46:50;3.72;;;2.67;;
53479;SDS011;56133;51.012;-1.648;2022-08-01T11:54:35;5.18;;;2.60;;
53479;SDS011;56133;51.012;-1.648;2022-08-01T11:57:13;3.55;;;2.53;;
53479;SDS011;56133;51.012;-1.648;2022-08-01T11:59:43;4.18;;;2.55;;
53479;SDS011;56133;51.012;-1.648;2022-08-01T12:02:14;5.35;;;2.38;;
53479;SDS011;56133;51.012;-1.648;2022-08-01T12:04:48;3.45;;;2.38;;
53479;SDS011;56133;51.012;-1.648;2022-08-01T12:07:14;5.03;;;2.20;;
53479;SDS011;56133;51.012;-1.648;2022-08-01T12:09:39;6.03;;;2.40;;
53479;SDS011;56133;51.012;-1.648;2022-08-01T12:12:05;3.58;;;2.30;;
53479;SDS011;56133;51.012;-1.648;2022-08-01T12:14:31;4.35;;;2.17;;
53479;SDS011;56133;51.012;-1.648;2022-08-01T12:16:56;5.18;;;2.22;;
53479;SDS011;56133;51.012;-1.648;2022-08-01T12:19:23;3.08;;;1.92;;
53479;SDS011;56133;51.012;-1.648;2022-08-01T12:24:50;3.28;;;1.73;;
53479;SDS011;56133;51.012;-1.648;2022-08-01T12:27:26;5.10;;;1.95;;
53479;SDS011;56133;51.012;-1.648;2022-08-01T12:29:53;1.70;;;1.42;;
53479;SDS011;56133;51.012;-1.648;2022-08-01T12:32:27;2.95;;;1.73;;
53479;SDS011;56133;51.012;-1.648;2022-08-01T12:34:57;4.50;;;1.52;;
53479;SDS011;56133;51.012;-1.648;2022-08-01T12:37:27;1.85;;;1.60;;
53479;SDS011;56133;51.012;-1.648;2022-08-01T12:39:53;2.58;;;1.80;;
53479;SDS011;56133;51.012;-1.648;2022-08-01T12:42:18;2.22;;;1.52;;
53479;SDS011;56133;51.012;-1.648;2022-08-01T12:44:45;2.35;;;1.40;;
53479;SDS011;56133;51.012;-1.648;2022-08-01T12:47:13;3.60;;;1.40;;
53479;SDS011;56133;51.012;-1.648;2022-08-01T12:49:41;1.98;;;1.30;;
53479;SDS011;56133;51.012;-1.648;2022-08-01T12:52:08;3.60;;;1.33;;
53479;SDS011;56133;51.012;-1.648;2022-08-01T12:57:25;3.42;;;1.52;;
53479;SDS011;56133;51.012;-1.648;2022-08-01T13:00:04;2.05;;;1.70;;
53479;SDS011;56133;51.012;-1.648;2022-08-01T13:02:34;1.73;;;1.60;;
53479;SDS011;56133;51.012;-1.648;2022-08-01T13:05:00;3.42;;;1.80;;
53479;SDS011;56133;51.012;-1.648;2022-08-01T13:10:08;3.75;;;1.58;;
53479;SDS011;56133;51.012;-1.648;2022-08-01T13:12:34;1.77;;;1.40;;
53479;SDS011;56133;51.012;-1.648;2022-08-01T13:15:14;1.88;;;1.45;;
53479;SDS011;56133;51.012;-1.648;2022-08-01T13:17:47;1.45;;;1.35;;
53479;SDS011;56133;51.012;-1.648;2022-08-01T13:20:22;2.90;;;1.35;;
53479;SDS011;56133;51.012;-1.648;2022-08-01T13:22:53;2.95;;;1.30;;
53479;SDS011;56133;51.012;-1.648;2022-08-01T13:25:19;2.42;;;1.60;;
53479;SDS011;56133;51.012;-1.648;2022-08-01T13:27:44;2.63;;;1.30;;
53479;SDS011;56133;51.012;-1.648;2022-08-01T13:30:16;3.63;;;1.60;;
53479;SDS011;56133;51.012;-1.648;2022-08-01T13:35:22;1.45;;;1.13;;
53479;SDS011;56133;51.012;-1.648;2022-08-01T13:37:47;1.65;;;1.30;;
53479;SDS011;56133;51.012;-1.648;2022-08-01T13:40:22;4.07;;;1.30;;
53479;SDS011;56133;51.012;-1.648;2022-08-01T13:42:52;2.78;;;1.63;;
53479;SDS011;56133;51.012;-1.648;2022-08-01T13:45:19;2.58;;;1.50;;
53479;SDS011;56133;51.012;-1.648;2022-08-01T13:47:45;1.60;;;1.50;;
53479;SDS011;56133;51.012;-1.648;2022-08-01T13:50:11;3.05;;;1.33;;
53479;SDS011;56133;51.012;-1.648;2022-08-01T13:52:36;2.00;;;1.27;;
53479;SDS011;56133;51.012;-1.648;2022-08-01T13:55:02;3.28;;;1.50;;
53479;SDS011;56133;51.012;-1.648;2022-08-01T13:57:27;2.30;;;1.50;;
53479;SDS011;56133;51.012;-1.648;2022-08-01T13:59:53;2.50;;;1.38;;
53479;SDS011;56133;51.012;-1.648;2022-08-01T14:02:19;3.88;;;1.40;;
53479;SDS011;56133;51.012;-1.648;2022-08-01T14:04:45;3.20;;;1.25;;
53479;SDS011;56133;51.012;-1.648;2022-08-01T14:07:11;3.47;;;1.30;;
53479;SDS011;56133;51.012;-1.648;2022-08-01T14:09:38;1.40;;;1.20;;
53479;SDS011;56133;51.012;-1.648;2022-08-01T14:12:04;2.40;;;1.20;;
53479;SDS011;56133;51.012;-1.648;2022-08-01T14:14:29;0.80;;;0.80;;
53479;SDS011;56133;51.012;-1.648;2022-08-01T14:16:55;2.35;;;1.00;;
53479;SDS011;56133;51.012;-1.648;2022-08-01T14:19:21;1.20;;;1.05;;
53479;SDS011;56133;51.012;-1.648;2022-08-01T14:21:47;2.17;;;0.90;;
53479;SDS011;56133;51.012;-1.648;2022-08-01T14:24:13;3.42;;;1.20;;
53479;SDS011;56133;51.012;-1.648;2022-08-01T14:26:38;6.53;;;1.45;;
53479;SDS011;56133;51.012;-1.648;2022-08-01T14:29:03;4.10;;;1.10;;
53479;SDS011;56133;51.012;-1.648;2022-08-01T14:31:29;2.38;;;0.80;;
53479;SDS011;56133;51.012;-1.648;2022-08-01T14:33:55;3.33;;;0.77;;
53479;SDS011;56133;51.012;-1.648;2022-08-01T14:36:20;3.72;;;1.30;;
53479;SDS011;56133;51.012;-1.648;2022-08-01T14:38:46;3.00;;;1.00;;
53479;SDS011;56133;51.012;-1.648;2022-08-01T14:41:11;3.85;;;0.77;;
53479;SDS011;56133;51.012;-1.648;2022-08-01T14:43:38;1.08;;;0.90;;
53479;SDS011;56133;51.012;-1.648;2022-08-01T14:46:03;2.53;;;0.80;;
53479;SDS011;56133;51.012;-1.648;2022-08-01T14:48:29;4.15;;;0.80;;
53479;SDS011;56133;51.012;-1.648;2022-08-01T14:50:55;2.42;;;0.80;;
53479;SDS011;56133;51.012;-1.648;2022-08-01T14:53:21;2.20;;;0.95;;
53479;SDS011;56133;51.012;-1.648;2022-08-01T14:55:46;2.03;;;0.80;;
53479;SDS011;56133;51.012;-1.648;2022-08-01T14:58:12;1.58;;;0.65;;
53479;SDS011;56133;51.012;-1.648;2022-08-01T15:00:37;3.00;;;1.00;;
53479;SDS011;56133;51.012;-1.648;2022-08-01T15:03:03;3.03;;;0.85;;
53479;SDS011;56133;51.012;-1.648;2022-08-01T15:05:28;4.00;;;0.88;;
53479;SDS011;56133;51.012;-1.648;2022-08-01T15:07:55;2.30;;;0.75;;
53479;SDS011;56133;51.012;-1.648;2022-08-01T15:10:21;0.95;;;0.70;;
53479;SDS011;56133;51.012;-1.648;2022-08-01T15:12:47;1.10;;;0.60;;
53479;SDS011;56133;51.012;-1.648;2022-08-01T15:15:13;1.90;;;0.70;;
53479;SDS011;56133;51.012;-1.648;2022-08-01T15:17:38;0.90;;;0.60;;